TimeCST,TemperatureF,Dew PointF,Humidity,Sea Level PressureIn,VisibilityMPH,Wind Direction,Wind SpeedMPH,Gust SpeedMPH,PrecipitationIn,Events,Conditions,WindDirDegrees,DateUTC
12:01 AM,-4.0,-9.4,78,30.22,10.0,Calm,Calm,-,N/A,,Mostly Cloudy,0,2012-12-25 06:01:00
12:51 AM,-4.0,-9.4,78,30.23,10.0,Calm,Calm,-,N/A,,Scattered Clouds,0,2012-12-25 06:51:00
12:53 AM,-4.0,-9.0,79,30.32,10.0,Calm,Calm,-,N/A,,Scattered Clouds,0,2012-12-25 06:53:00
1:53 AM,-5.1,-9.9,80,30.34,10.0,Calm,Calm,-,N/A,,Partly Cloudy,0,2012-12-25 07:53:00
2:53 AM,-6.0,-11.9,75,30.36,10.0,Calm,Calm,-,N/A,,Clear,0,2012-12-25 08:53:00
3:00 AM,-5.8,-11.2,77,30.27,10.0,Calm,Calm,-,N/A,,Partly Cloudy,0,2012-12-25 09:00:00
3:33 AM,-7.6,-13.0,77,30.28,10.0,Calm,Calm,-,N/A,,Mostly Cloudy,0,2012-12-25 09:33:00
3:42 AM,-5.8,-11.2,77,30.28,10.0,Calm,Calm,-,N/A,,Scattered Clouds,0,2012-12-25 09:42:00
3:53 AM,-7.1,-11.9,79,30.38,10.0,Calm,Calm,-,N/A,,Partly Cloudy,0,2012-12-25 09:53:00
4:28 AM,-7.6,-11.2,84,30.30,10.0,Calm,Calm,-,N/A,,Mostly Cloudy,0,2012-12-25 10:28:00
4:53 AM,-7.1,-11.9,79,30.41,10.0,Calm,Calm,-,N/A,,Mostly Cloudy,0,2012-12-25 10:53:00
5:53 AM,-6.0,-13.0,72,30.44,10.0,Calm,Calm,-,N/A,,Overcast,0,2012-12-25 11:53:00
6:42 AM,-7.6,-11.2,84,30.34,10.0,Calm,Calm,-,N/A,,Partly Cloudy,0,2012-12-25 12:42:00
6:53 AM,-7.1,-11.9,79,30.46,10.0,Calm,Calm,-,N/A,,Partly Cloudy,0,2012-12-25 12:53:00
7:09 AM,-7.6,-14.8,71,30.34,10.0,Calm,Calm,-,N/A,,Mostly Cloudy,0,2012-12-25 13:09:00
7:31 AM,-7.6,-14.8,71,30.35,10.0,Calm,Calm,-,N/A,,Scattered Clouds,0,2012-12-25 13:31:00
7:53 AM,-9.0,-14.1,79,30.48,10.0,Calm,Calm,-,N/A,,Clear,0,2012-12-25 13:53:00
8:53 AM,-2.9,-8.0,79,30.49,10.0,Calm,Calm,-,N/A,,Clear,0,2012-12-25 14:53:00
9:53 AM,-0.0,-5.1,79,30.51,10.0,Calm,Calm,-,N/A,,Clear,0,2012-12-25 15:53:00
10:53 AM,3.9,-2.0,76,30.50,10.0,Calm,Calm,-,N/A,,Clear,0,2012-12-25 16:53:00
11:53 AM,8.1,-0.0,70,30.48,10.0,Calm,Calm,-,N/A,,Clear,0,2012-12-25 17:53:00
12:53 PM,10.9,1.0,64,30.47,10.0,West,3.5,-,N/A,,Clear,280,2012-12-25 18:53:00
1:53 PM,12.9,1.9,62,30.48,10.0,WSW,4.6,-,N/A,,Clear,250,2012-12-25 19:53:00
2:53 PM,14.0,1.9,59,30.47,10.0,West,3.5,-,N/A,,Clear,280,2012-12-25 20:53:00
3:53 PM,12.9,1.0,59,30.46,10.0,Calm,Calm,-,N/A,,Clear,0,2012-12-25 21:53:00
4:53 PM,7.0,-0.0,73,30.47,10.0,Calm,Calm,-,N/A,,Clear,0,2012-12-25 22:53:00
5:53 PM,3.0,-2.0,80,30.49,10.0,Calm,Calm,-,N/A,,Clear,0,2012-12-25 23:53:00
6:53 PM,-0.0,-7.1,72,30.53,10.0,Calm,Calm,-,N/A,,Clear,0,2012-12-26 00:53:00
7:53 PM,-2.9,-9.0,75,30.54,10.0,Calm,Calm,-,N/A,,Clear,0,2012-12-26 01:53:00
8:53 PM,-4.0,-9.9,76,30.53,10.0,Calm,Calm,-,N/A,,Clear,0,2012-12-26 02:53:00
9:53 PM,-5.1,-9.9,80,30.50,10.0,Calm,Calm,-,N/A,,Clear,0,2012-12-26 03:53:00
10:53 PM,-7.1,-13.0,75,30.49,10.0,Calm,Calm,-,N/A,,Clear,0,2012-12-26 04:53:00
11:53 PM,-7.1,-14.1,72,30.47,10.0,Calm,Calm,-,N/A,,Clear,0,2012-12-26 05:53:00